Time,TemperatureF,DewpointF,PressureIn,WindDirection,WindDirectionDegrees,WindSpeedMPH,WindSpeedGustMPH,Humidity,HourlyPrecipIn,Conditions,Clouds,dailyrainin,SoftwareType,DateUTC
2013-10-23 00:08:00,48.5,38.0,29.78,WSW,241,0.0,1.0,67,0.00,,,0.00,weatherlink.com 1.10,2013-10-23 04:08:00,
2013-10-23 00:24:00,47.7,38.0,29.78,West,262,1.0,1.0,68,0.00,,,0.00,weatherlink.com 1.10,2013-10-23 04:24:00,
2013-10-23 00:39:00,47.5,37.0,29.78,West,271,0.0,3.0,68,0.00,,,0.00,weatherlink.com 1.10,2013-10-23 04:39:00,
2013-10-23 00:54:00,46.7,37.0,29.79,WSW,256,0.0,1.0,69,0.00,,,0.00,weatherlink.com 1.10,2013-10-23 04:54:00,
2013-10-23 01:09:00,45.7,37.0,29.79,WSW,256,0.0,1.0,71,0.00,,,0.00,weatherlink.com 1.10,2013-10-23 05:09:00,
2013-10-23 01:24:00,46.0,36.0,29.79,West,273,0.0,2.0,69,0.00,,,0.00,weatherlink.com 1.10,2013-10-23 05:24:00,
2013-10-23 01:39:00,45.9,36.0,29.80,West,274,0.0,1.0,68,0.00,,,0.00,weatherlink.com 1.10,2013-10-23 05:39:00,
2013-10-23 01:54:00,45.1,36.0,29.80,West,276,0.0,0.0,70,0.00,,,0.00,weatherlink.com 1.10,2013-10-23 05:54:00,
2013-10-23 02:09:00,44.8,36.0,29.79,West,269,1.0,1.0,72,0.00,,,0.00,weatherlink.com 1.10,2013-10-23 06:09:00,
2013-10-23 02:24:00,44.1,36.0,29.79,West,273,0.0,0.0,73,0.00,,,0.00,weatherlink.com 1.10,2013-10-23 06:24:00,
2013-10-23 02:39:00,42.8,35.0,29.79,West,273,0.0,0.0,75,0.00,,,0.00,weatherlink.com 1.10,2013-10-23 06:39:00,
2013-10-23 02:54:00,42.2,36.0,29.79,West,263,0.0,0.0,78,0.00,,,0.00,weatherlink.com 1.10,2013-10-23 06:54:00,
2013-10-23 03:09:00,41.5,36.0,29.79,West,263,0.0,0.0,80,0.00,,,0.00,weatherlink.com 1.10,2013-10-23 07:09:00,
2013-10-23 03:24:00,40.8,36.0,29.79,SE,136,0.0,1.0,82,0.00,,,0.00,weatherlink.com 1.10,2013-10-23 07:24:00,
2013-10-23 03:39:00,40.3,36.0,29.79,ESE,117,0.0,0.0,84,0.00,,,0.00,weatherlink.com 1.10,2013-10-23 07:39:00,
2013-10-23 03:54:00,40.1,36.0,29.79,SE,129,0.0,0.0,85,0.00,,,0.00,weatherlink.com 1.10,2013-10-23 07:54:00,
2013-10-23 04:09:00,39.8,36.0,29.79,SE,129,0.0,0.0,85,0.00,,,0.00,weatherlink.com 1.10,2013-10-23 08:09:00,
2013-10-23 04:24:00,39.4,36.0,29.78,SE,129,0.0,0.0,86,0.00,,,0.00,weatherlink.com 1.10,2013-10-23 08:24:00,
2013-10-23 04:39:00,39.3,36.0,29.77,SE,129,0.0,1.0,87,0.00,,,0.00,weatherlink.com 1.10,2013-10-23 08:39:00,
2013-10-23 04:54:00,38.5,35.0,29.78,SE,129,0.0,1.0,87,0.00,,,0.00,weatherlink.com 1.10,2013-10-23 08:54:00,
2013-10-23 05:09:00,38.3,35.0,29.78,SE,138,0.0,0.0,88,0.00,,,0.00,weatherlink.com 1.10,2013-10-23 09:09:00,
2013-10-23 05:24:00,38.2,35.0,29.77,SE,138,0.0,0.0,88,0.00,,,0.00,weatherlink.com 1.10,2013-10-23 09:24:00,
2013-10-23 05:39:00,38.0,35.0,29.77,SE,138,0.0,0.0,89,0.00,,,0.00,weatherlink.com 1.10,2013-10-23 09:39:00,
2013-10-23 05:54:00,39.0,36.0,29.77,SE,138,0.0,1.0,90,0.00,,,0.00,weatherlink.com 1.10,2013-10-23 09:54:00,
2013-10-23 06:09:00,39.0,36.0,29.77,SE,141,0.0,1.0,88,0.00,,,0.00,weatherlink.com 1.10,2013-10-23 10:09:00,
2013-10-23 06:24:00,39.1,36.0,29.77,South,190,0.0,0.0,87,0.00,,,0.00,weatherlink.com 1.10,2013-10-23 10:24:00,
2013-10-23 06:39:00,39.5,36.0,29.76,South,179,0.0,1.0,87,0.00,,,0.00,weatherlink.com 1.10,2013-10-23 10:39:00,
2013-10-23 06:54:00,39.7,36.0,29.76,SW,226,0.0,1.0,86,0.00,,,0.00,weatherlink.com 1.10,2013-10-23 10:54:00,
2013-10-23 07:09:00,39.5,35.0,29.76,SSW,211,0.0,1.0,85,0.00,,,0.00,weatherlink.com 1.10,2013-10-23 11:09:00,
2013-10-23 07:25:00,40.0,36.0,29.77,SW,221,0.0,1.0,85,0.00,,,0.00,weatherlink.com 1.10,2013-10-23 11:25:00,
2013-10-23 07:40:00,40.6,36.0,29.76,West,270,0.0,2.0,83,0.00,,,0.00,weatherlink.com 1.10,2013-10-23 11:40:00,
2013-10-23 07:55:00,40.9,36.0,29.76,West,270,0.0,1.0,83,0.00,,,0.00,weatherlink.com 1.10,2013-10-23 11:55:00,
2013-10-23 08:10:00,41.5,36.0,29.77,WSW,256,2.0,2.0,82,0.00,,,0.00,weatherlink.com 1.10,2013-10-23 12:10:00,
2013-10-23 08:25:00,43.1,37.0,29.77,SSW,210,1.0,2.0,79,0.00,,,0.00,weatherlink.com 1.10,2013-10-23 12:25:00,
2013-10-23 08:40:00,45.2,38.0,29.77,SSW,211,0.0,1.0,75,0.00,,,0.00,weatherlink.com 1.10,2013-10-23 12:40:00,
2013-10-23 08:55:00,46.7,38.0,29.76,West,274,0.0,1.0,71,0.00,,,0.00,weatherlink.com 1.10,2013-10-23 12:55:00,
2013-10-23 09:10:00,47.9,37.0,29.76,West,271,2.0,4.0,65,0.00,,,0.00,weatherlink.com 1.10,2013-10-23 13:10:00,
2013-10-23 09:25:00,49.1,36.0,29.76,West,259,2.0,3.0,62,0.00,,,0.00,weatherlink.com 1.10,2013-10-23 13:25:00,
2013-10-23 09:40:00,50.5,36.0,29.75,North,9,0.0,1.0,59,0.00,,,0.00,weatherlink.com 1.10,2013-10-23 13:40:00,
2013-10-23 09:55:00,51.0,35.0,29.74,West,267,0.0,1.0,55,0.00,,,0.00,weatherlink.com 1.10,2013-10-23 13:55:00,
2013-10-23 10:10:00,50.9,35.0,29.74,West,274,0.0,2.0,54,0.00,,,0.00,weatherlink.com 1.10,2013-10-23 14:10:00,
2013-10-23 10:25:00,51.1,34.0,29.74,WSW,239,1.0,4.0,52,0.00,,,0.00,weatherlink.com 1.10,2013-10-23 14:25:00,
2013-10-23 10:40:00,51.6,34.0,29.74,SSW,207,0.0,3.0,52,0.00,,,0.00,weatherlink.com 1.10,2013-10-23 14:40:00,
2013-10-23 10:55:00,52.1,34.0,29.73,WNW,298,3.0,3.0,50,0.00,,,0.00,weatherlink.com 1.10,2013-10-23 14:55:00,
2013-10-23 11:10:00,52.0,33.0,29.73,WSW,248,1.0,4.0,48,0.00,,,0.00,weatherlink.com 1.10,2013-10-23 15:10:00,
2013-10-23 11:25:00,52.3,33.0,29.73,SW,233,1.0,2.0,48,0.00,,,0.00,weatherlink.com 1.10,2013-10-23 15:25:00,
2013-10-23 11:40:00,52.0,33.0,29.72,West,281,0.0,4.0,48,0.00,,,0.00,weatherlink.com 1.10,2013-10-23 15:40:00,
2013-10-23 11:55:00,52.4,32.0,29.70,West,262,1.0,2.0,47,0.00,,,0.00,weatherlink.com 1.10,2013-10-23 15:55:00,
2013-10-23 12:10:00,52.5,33.0,29.69,West,278,1.0,2.0,48,0.00,,,0.00,weatherlink.com 1.10,2013-10-23 16:10:00,
2013-10-23 12:25:00,52.7,33.0,29.69,NE,44,0.0,3.0,47,0.00,,,0.00,weatherlink.com 1.10,2013-10-23 16:25:00,
2013-10-23 12:40:00,52.3,32.0,29.68,West,266,1.0,4.0,47,0.00,,,0.00,weatherlink.com 1.10,2013-10-23 16:40:00,
2013-10-23 12:55:00,52.0,32.0,29.68,SW,233,1.0,4.0,47,0.00,,,0.00,weatherlink.com 1.10,2013-10-23 16:55:00,
2013-10-23 13:10:00,52.1,32.0,29.68,SSE,156,1.0,4.0,47,0.00,,,0.00,weatherlink.com 1.10,2013-10-23 17:10:00,
2013-10-23 13:25:00,52.1,33.0,29.66,NW,319,1.0,5.0,49,0.00,,,0.00,weatherlink.com 1.10,2013-10-23 17:25:00,
2013-10-23 13:40:00,52.3,32.0,29.65,West,271,0.0,3.0,47,0.00,,,0.00,weatherlink.com 1.10,2013-10-23 17:40:00,
2013-10-23 13:55:00,52.3,32.0,29.64,NE,56,1.0,2.0,47,0.00,,,0.00,weatherlink.com 1.10,2013-10-23 17:55:00,
2013-10-23 14:10:00,52.5,32.0,29.63,NE,54,1.0,1.0,46,0.00,,,0.00,weatherlink.com 1.10,2013-10-23 18:10:00,
2013-10-23 14:25:00,51.9,32.0,29.62,West,269,2.0,4.0,47,0.00,,,0.00,weatherlink.com 1.10,2013-10-23 18:25:00,
2013-10-23 14:40:00,51.9,33.0,29.61,WSW,256,0.0,2.0,48,0.00,,,0.00,weatherlink.com 1.10,2013-10-23 18:40:00,
2013-10-23 14:55:00,51.6,32.0,29.60,NE,53,0.0,2.0,48,0.00,,,0.00,weatherlink.com 1.10,2013-10-23 18:55:00,
2013-10-23 15:11:00,51.9,32.0,29.59,North,360,0.0,1.0,47,0.00,,,0.00,weatherlink.com 1.10,2013-10-23 19:11:00,
2013-10-23 15:26:00,51.7,32.0,29.60,NW,307,1.0,1.0,48,0.00,,,0.00,weatherlink.com 1.10,2013-10-23 19:26:00,
2013-10-23 15:41:00,51.6,32.0,29.60,SW,225,1.0,1.0,48,0.00,,,0.00,weatherlink.com 1.10,2013-10-23 19:41:00,
2013-10-23 15:56:00,51.6,33.0,29.60,SW,225,0.0,1.0,49,0.00,,,0.00,weatherlink.com 1.10,2013-10-23 19:56:00,
2013-10-23 16:11:00,51.6,32.0,29.59,SW,233,0.0,1.0,48,0.00,,,0.00,weatherlink.com 1.10,2013-10-23 20:11:00,
2013-10-23 16:26:00,51.6,33.0,29.60,NW,316,0.0,1.0,49,0.00,,,0.00,weatherlink.com 1.10,2013-10-23 20:26:00,
2013-10-23 16:41:00,51.4,34.0,29.60,WNW,298,0.0,1.0,51,0.00,,,0.00,weatherlink.com 1.10,2013-10-23 20:41:00,
2013-10-23 16:56:00,51.3,33.0,29.60,West,271,0.0,1.0,50,0.00,,,0.00,weatherlink.com 1.10,2013-10-23 20:56:00,
2013-10-23 17:11:00,51.0,33.0,29.61,SW,222,1.0,2.0,50,0.00,,,0.00,weatherlink.com 1.10,2013-10-23 21:11:00,
2013-10-23 17:26:00,50.5,33.0,29.60,WNW,300,0.0,1.0,51,0.00,,,0.00,weatherlink.com 1.10,2013-10-23 21:26:00,
2013-10-23 17:41:00,50.3,33.0,29.60,WSW,246,0.0,1.0,52,0.00,,,0.00,weatherlink.com 1.10,2013-10-23 21:41:00,
2013-10-23 17:56:00,50.1,33.0,29.61,WSW,250,1.0,1.0,52,0.00,,,0.00,weatherlink.com 1.10,2013-10-23 21:56:00,
2013-10-23 18:11:00,50.1,33.0,29.61,WSW,255,0.0,1.0,53,0.00,,,0.00,weatherlink.com 1.10,2013-10-23 22:11:00,
2013-10-23 18:26:00,50.0,34.0,29.61,West,264,0.0,1.0,54,0.00,,,0.00,weatherlink.com 1.10,2013-10-23 22:26:00,
2013-10-23 18:41:00,49.8,34.0,29.61,West,265,0.0,1.0,55,0.00,,,0.00,weatherlink.com 1.10,2013-10-23 22:41:00,
2013-10-23 18:56:00,49.5,34.0,29.61,West,265,0.0,1.0,56,0.00,,,0.00,weatherlink.com 1.10,2013-10-23 22:56:00,
2013-10-23 19:11:00,49.2,34.0,29.62,WSW,253,0.0,1.0,57,0.00,,,0.00,weatherlink.com 1.10,2013-10-23 23:11:00,
2013-10-23 19:26:00,49.2,34.0,29.62,WSW,252,1.0,3.0,56,0.00,,,0.00,weatherlink.com 1.10,2013-10-23 23:26:00,
2013-10-23 19:41:00,49.0,35.0,29.61,WSW,250,0.0,1.0,58,0.00,,,0.00,weatherlink.com 1.10,2013-10-23 23:41:00,
2013-10-23 19:56:00,48.4,35.0,29.59,WSW,251,0.0,0.0,61,0.00,,,0.00,weatherlink.com 1.10,2013-10-23 23:56:00,
2013-10-23 20:11:00,48.1,35.0,29.60,ESE,105,0.0,1.0,62,0.00,,,0.00,weatherlink.com 1.10,2013-10-24 00:11:00,
2013-10-23 20:26:00,46.6,36.0,29.61,ESE,107,0.0,1.0,66,0.00,,,0.00,weatherlink.com 1.10,2013-10-24 00:26:00,
2013-10-23 20:41:00,46.4,36.0,29.61,South,175,0.0,2.0,67,0.00,,,0.00,weatherlink.com 1.10,2013-10-24 00:41:00,
2013-10-23 20:56:00,46.0,36.0,29.61,SSE,156,0.0,1.0,68,0.00,,,0.00,weatherlink.com 1.10,2013-10-24 00:56:00,
2013-10-23 21:11:00,47.0,36.0,29.62,SW,217,0.0,2.0,65,0.00,,,0.00,weatherlink.com 1.10,2013-10-24 01:11:00,
2013-10-23 21:26:00,47.6,36.0,29.61,West,269,1.0,2.0,65,0.00,,,0.00,weatherlink.com 1.10,2013-10-24 01:26:00,
2013-10-23 21:41:00,47.5,36.0,29.62,NW,306,1.0,3.0,64,0.00,,,0.00,weatherlink.com 1.10,2013-10-24 01:41:00,
2013-10-23 21:56:00,47.5,36.0,29.62,West,269,1.0,3.0,64,0.00,,,0.00,weatherlink.com 1.10,2013-10-24 01:56:00,
2013-10-23 22:11:00,47.4,36.0,29.62,WSW,252,1.0,4.0,64,0.00,,,0.00,weatherlink.com 1.10,2013-10-24 02:11:00,
2013-10-23 22:26:00,47.2,35.0,29.62,West,269,2.0,5.0,64,0.00,,,0.00,weatherlink.com 1.10,2013-10-24 02:26:00,
2013-10-23 22:41:00,47.0,36.0,29.62,West,278,2.0,4.0,65,0.00,,,0.00,weatherlink.com 1.10,2013-10-24 02:41:00,
2013-10-23 22:56:00,46.9,36.0,29.62,West,271,0.0,3.0,65,0.00,,,0.00,weatherlink.com 1.10,2013-10-24 02:56:00,
2013-10-23 23:11:00,46.9,36.0,29.62,WSW,251,3.0,4.0,65,0.00,,,0.00,weatherlink.com 1.10,2013-10-24 03:11:00,
2013-10-23 23:26:00,47.0,36.0,29.63,WNW,287,5.0,5.0,65,0.00,,,0.00,weatherlink.com 1.10,2013-10-24 03:26:00,
2013-10-23 23:41:00,47.2,36.0,29.63,West,263,0.0,6.0,65,0.00,,,0.00,weatherlink.com 1.10,2013-10-24 03:41:00,
2013-10-23 23:56:00,47.3,36.0,29.63,WSW,253,2.0,4.0,65,0.00,,,0.00,weatherlink.com 1.10,2013-10-24 03:56:00,